sensor_id;sensor_type;location;lat;lon;timestamp;P1;durP1;ratioP1;P2;durP2;ratioP2
32746;SDS011;19118;50.860;13.662;2022-07-23T00:02:18;7.47;;;3.63;;
32746;SDS011;19118;50.860;13.662;2022-07-23T00:07:18;6.97;;;3.23;;
32746;SDS011;19118;50.860;13.662;2022-07-23T00:12:19;7.17;;;3.77;;
32746;SDS011;19118;50.860;13.662;2022-07-23T00:17:20;4.70;;;3.42;;
32746;SDS011;19118;50.860;13.662;2022-07-23T00:22:21;4.27;;;3.63;;
32746;SDS011;19118;50.860;13.662;2022-07-23T00:27:21;5.05;;;3.83;;
32746;SDS011;19118;50.860;13.662;2022-07-23T00:32:22;5.72;;;3.58;;
32746;SDS011;19118;50.860;13.662;2022-07-23T00:37:22;6.33;;;3.90;;
32746;SDS011;19118;50.860;13.662;2022-07-23T00:42:22;5.00;;;3.50;;
32746;SDS011;19118;50.860;13.662;2022-07-23T00:47:23;7.00;;;3.33;;
32746;SDS011;19118;50.860;13.662;2022-07-23T00:52:23;8.27;;;4.07;;
32746;SDS011;19118;50.860;13.662;2022-07-23T00:57:24;5.32;;;3.30;;
32746;SDS011;19118;50.860;13.662;2022-07-23T01:02:25;5.93;;;3.97;;
32746;SDS011;19118;50.860;13.662;2022-07-23T01:07:26;7.70;;;3.88;;
32746;SDS011;19118;50.860;13.662;2022-07-23T01:12:27;4.72;;;3.53;;
32746;SDS011;19118;50.860;13.662;2022-07-23T01:17:27;4.90;;;3.50;;
32746;SDS011;19118;50.860;13.662;2022-07-23T01:22:28;7.60;;;3.55;;
32746;SDS011;19118;50.860;13.662;2022-07-23T01:27:29;6.43;;;3.28;;
32746;SDS011;19118;50.860;13.662;2022-07-23T01:32:36;5.15;;;3.30;;
32746;SDS011;19118;50.860;13.662;2022-07-23T01:37:37;6.45;;;3.83;;
32746;SDS011;19118;50.860;13.662;2022-07-23T01:42:38;5.50;;;2.88;;
32746;SDS011;19118;50.860;13.662;2022-07-23T01:47:40;5.05;;;3.45;;
32746;SDS011;19118;50.860;13.662;2022-07-23T01:52:41;5.20;;;4.35;;
32746;SDS011;19118;50.860;13.662;2022-07-23T01:57:42;5.03;;;3.90;;
32746;SDS011;19118;50.860;13.662;2022-07-23T02:02:44;5.05;;;3.80;;
32746;SDS011;19118;50.860;13.662;2022-07-23T02:07:44;6.30;;;3.53;;
32746;SDS011;19118;50.860;13.662;2022-07-23T02:12:45;5.65;;;3.65;;
32746;SDS011;19118;50.860;13.662;2022-07-23T02:17:46;8.02;;;3.65;;
32746;SDS011;19118;50.860;13.662;2022-07-23T02:22:46;6.17;;;3.93;;
32746;SDS011;19118;50.860;13.662;2022-07-23T02:27:46;6.13;;;4.10;;
32746;SDS011;19118;50.860;13.662;2022-07-23T02:32:47;11.57;;;4.47;;
32746;SDS011;19118;50.860;13.662;2022-07-23T02:37:47;5.43;;;3.90;;
32746;SDS011;19118;50.860;13.662;2022-07-23T02:42:47;5.13;;;4.00;;
32746;SDS011;19118;50.860;13.662;2022-07-23T02:47:49;7.47;;;4.10;;
32746;SDS011;19118;50.860;13.662;2022-07-23T02:52:49;8.55;;;3.33;;
32746;SDS011;19118;50.860;13.662;2022-07-23T02:57:50;6.43;;;4.43;;
32746;SDS011;19118;50.860;13.662;2022-07-23T03:02:51;7.90;;;3.80;;
32746;SDS011;19118;50.860;13.662;2022-07-23T03:07:52;5.72;;;3.53;;
32746;SDS011;19118;50.860;13.662;2022-07-23T03:12:54;6.35;;;3.90;;
32746;SDS011;19118;50.860;13.662;2022-07-23T03:17:54;7.15;;;4.15;;
32746;SDS011;19118;50.860;13.662;2022-07-23T03:22:55;7.55;;;3.88;;
32746;SDS011;19118;50.860;13.662;2022-07-23T03:27:55;7.18;;;3.92;;
32746;SDS011;19118;50.860;13.662;2022-07-23T03:32:56;5.00;;;4.05;;
32746;SDS011;19118;50.860;13.662;2022-07-23T03:37:56;6.13;;;3.90;;
32746;SDS011;19118;50.860;13.662;2022-07-23T03:42:59;7.22;;;3.70;;
32746;SDS011;19118;50.860;13.662;2022-07-23T03:48:00;4.78;;;3.30;;
32746;SDS011;19118;50.860;13.662;2022-07-23T03:53:00;10.93;;;4.25;;
32746;SDS011;19118;50.860;13.662;2022-07-23T03:58:01;7.82;;;4.32;;
32746;SDS011;19118;50.860;13.662;2022-07-23T04:03:01;4.68;;;4.05;;
32746;SDS011;19118;50.860;13.662;2022-07-23T04:08:03;9.98;;;5.57;;
32746;SDS011;19118;50.860;13.662;2022-07-23T04:13:04;7.72;;;4.72;;
32746;SDS011;19118;50.860;13.662;2022-07-23T04:18:04;8.85;;;5.18;;
32746;SDS011;19118;50.860;13.662;2022-07-23T04:23:15;10.27;;;5.00;;
32746;SDS011;19118;50.860;13.662;2022-07-23T04:28:15;5.43;;;4.50;;
32746;SDS011;19118;50.860;13.662;2022-07-23T04:33:16;5.17;;;4.60;;
32746;SDS011;19118;50.860;13.662;2022-07-23T04:38:16;8.45;;;5.20;;
32746;SDS011;19118;50.860;13.662;2022-07-23T04:43:19;8.68;;;5.40;;
32746;SDS011;19118;50.860;13.662;2022-07-23T04:48:22;12.05;;;4.53;;
32746;SDS011;19118;50.860;13.662;2022-07-23T04:53:30;9.50;;;5.22;;
32746;SDS011;19118;50.860;13.662;2022-07-23T04:58:34;8.27;;;5.80;;
32746;SDS011;19118;50.860;13.662;2022-07-23T05:03:34;8.57;;;5.93;;
32746;SDS011;19118;50.860;13.662;2022-07-23T05:08:34;8.07;;;6.23;;
32746;SDS011;19118;50.860;13.662;2022-07-23T05:13:35;8.38;;;6.20;;
32746;SDS011;19118;50.860;13.662;2022-07-23T05:18:35;9.23;;;6.50;;
32746;SDS011;19118;50.860;13.662;2022-07-23T05:23:36;12.80;;;6.13;;
32746;SDS011;19118;50.860;13.662;2022-07-23T05:28:36;9.98;;;6.20;;
32746;SDS011;19118;50.860;13.662;2022-07-23T05:33:37;6.20;;;5.40;;
32746;SDS011;19118;50.860;13.662;2022-07-23T05:38:37;7.40;;;4.93;;
32746;SDS011;19118;50.860;13.662;2022-07-23T05:43:38;10.30;;;5.80;;
32746;SDS011;19118;50.860;13.662;2022-07-23T05:48:44;10.23;;;5.93;;
32746;SDS011;19118;50.860;13.662;2022-07-23T05:54:00;9.50;;;6.35;;
32746;SDS011;19118;50.860;13.662;2022-07-23T05:59:06;7.57;;;5.25;;
32746;SDS011;19118;50.860;13.662;2022-07-23T06:04:07;12.40;;;6.00;;
32746;SDS011;19118;50.860;13.662;2022-07-23T06:09:11;6.35;;;5.25;;
32746;SDS011;19118;50.860;13.662;2022-07-23T06:14:14;8.18;;;5.28;;
32746;SDS011;19118;50.860;13.662;2022-07-23T06:19:22;12.55;;;6.45;;
32746;SDS011;19118;50.860;13.662;2022-07-23T06:24:23;10.73;;;6.88;;
32746;SDS011;19118;50.860;13.662;2022-07-23T06:29:24;13.52;;;7.55;;
32746;SDS011;19118;50.860;13.662;2022-07-23T06:34:25;9.65;;;7.70;;
32746;SDS011;19118;50.860;13.662;2022-07-23T06:39:25;16.50;;;7.40;;
32746;SDS011;19118;50.860;13.662;2022-07-23T06:44:26;12.30;;;8.63;;
32746;SDS011;19118;50.860;13.662;2022-07-23T06:49:27;11.13;;;9.23;;
32746;SDS011;19118;50.860;13.662;2022-07-23T06:54:31;11.90;;;9.50;;
32746;SDS011;19118;50.860;13.662;2022-07-23T06:59:31;15.48;;;9.82;;
32746;SDS011;19118;50.860;13.662;2022-07-23T07:04:33;13.85;;;9.27;;
32746;SDS011;19118;50.860;13.662;2022-07-23T07:09:33;14.52;;;10.07;;
32746;SDS011;19118;50.860;13.662;2022-07-23T07:14:34;14.32;;;9.10;;
32746;SDS011;19118;50.860;13.662;2022-07-23T07:19:34;10.83;;;9.03;;
32746;SDS011;19118;50.860;13.662;2022-07-23T07:24:34;19.50;;;9.87;;
32746;SDS011;19118;50.860;13.662;2022-07-23T07:29:35;13.48;;;9.80;;
32746;SDS011;19118;50.860;13.662;2022-07-23T07:34:35;11.33;;;8.43;;
32746;SDS011;19118;50.860;13.662;2022-07-23T07:39:35;13.73;;;8.33;;
32746;SDS011;19118;50.860;13.662;2022-07-23T07:44:36;13.00;;;9.07;;
32746;SDS011;19118;50.860;13.662;2022-07-23T07:49:36;9.77;;;7.80;;
32746;SDS011;19118;50.860;13.662;2022-07-23T07:54:37;11.25;;;8.77;;
32746;SDS011;19118;50.860;13.662;2022-07-23T07:59:37;15.60;;;8.13;;
32746;SDS011;19118;50.860;13.662;2022-07-23T08:04:37;11.60;;;8.53;;
32746;SDS011;19118;50.860;13.662;2022-07-23T08:09:38;12.00;;;7.00;;
32746;SDS011;19118;50.860;13.662;2022-07-23T08:14:38;15.30;;;9.40;;
32746;SDS011;19118;50.860;13.662;2022-07-23T08:19:39;11.07;;;7.43;;
32746;SDS011;19118;50.860;13.662;2022-07-23T08:24:39;15.83;;;9.00;;
32746;SDS011;19118;50.860;13.662;2022-07-23T08:29:39;14.35;;;8.45;;
32746;SDS011;19118;50.860;13.662;2022-07-23T08:34:40;17.10;;;8.20;;
32746;SDS011;19118;50.860;13.662;2022-07-23T08:39:40;11.83;;;8.97;;
32746;SDS011;19118;50.860;13.662;2022-07-23T08:44:41;13.70;;;7.83;;
32746;SDS011;19118;50.860;13.662;2022-07-23T08:49:45;11.27;;;7.55;;
32746;SDS011;19118;50.860;13.662;2022-07-23T08:54:46;22.70;;;9.80;;
32746;SDS011;19118;50.860;13.662;2022-07-23T08:59:46;9.97;;;7.50;;
32746;SDS011;19118;50.860;13.662;2022-07-23T09:04:47;12.63;;;8.37;;
32746;SDS011;19118;50.860;13.662;2022-07-23T09:09:50;9.75;;;7.82;;
32746;SDS011;19118;50.860;13.662;2022-07-23T09:15:06;17.40;;;7.45;;
32746;SDS011;19118;50.860;13.662;2022-07-23T09:20:17;20.20;;;7.00;;
32746;SDS011;19118;50.860;13.662;2022-07-23T09:25:18;14.63;;;6.75;;
32746;SDS011;19118;50.860;13.662;2022-07-23T09:30:20;15.25;;;7.05;;
32746;SDS011;19118;50.860;13.662;2022-07-23T09:35:29;8.98;;;6.40;;
32746;SDS011;19118;50.860;13.662;2022-07-23T09:40:44;10.82;;;6.70;;
32746;SDS011;19118;50.860;13.662;2022-07-23T09:45:45;15.43;;;6.55;;
32746;SDS011;19118;50.860;13.662;2022-07-23T09:50:45;17.03;;;6.43;;
32746;SDS011;19118;50.860;13.662;2022-07-23T09:55:46;17.13;;;6.97;;
32746;SDS011;19118;50.860;13.662;2022-07-23T10:00:46;12.47;;;5.97;;
32746;SDS011;19118;50.860;13.662;2022-07-23T10:05:50;10.23;;;6.57;;
32746;SDS011;19118;50.860;13.662;2022-07-23T10:11:10;8.65;;;6.00;;
32746;SDS011;19118;50.860;13.662;2022-07-23T10:16:35;9.05;;;5.97;;
32746;SDS011;19118;50.860;13.662;2022-07-23T10:21:45;10.73;;;5.35;;
32746;SDS011;19118;50.860;13.662;2022-07-23T10:32:40;6.72;;;5.55;;
32746;SDS011;19118;50.860;13.662;2022-07-23T10:37:45;7.20;;;5.00;;
32746;SDS011;19118;50.860;13.662;2022-07-23T10:42:49;10.80;;;5.63;;
32746;SDS011;19118;50.860;13.662;2022-07-23T10:47:52;10.38;;;5.40;;
32746;SDS011;19118;50.860;13.662;2022-07-23T10:53:09;9.07;;;5.15;;
32746;SDS011;19118;50.860;13.662;2022-07-23T10:58:17;12.07;;;6.65;;
32746;SDS011;19118;50.860;13.662;2022-07-23T11:03:40;10.45;;;4.90;;
32746;SDS011;19118;50.860;13.662;2022-07-23T11:25:50;12.98;;;4.43;;
32746;SDS011;19118;50.860;13.662;2022-07-23T11:30:38;14.23;;;5.18;;
32746;SDS011;19118;50.860;13.662;2022-07-23T11:35:46;16.45;;;4.95;;
32746;SDS011;19118;50.860;13.662;2022-07-23T11:40:53;10.90;;;4.72;;
32746;SDS011;19118;50.860;13.662;2022-07-23T11:45:58;8.20;;;4.90;;
32746;SDS011;19118;50.860;13.662;2022-07-23T11:51:00;13.13;;;5.53;;
32746;SDS011;19118;50.860;13.662;2022-07-23T11:56:05;8.18;;;5.45;;
32746;SDS011;19118;50.860;13.662;2022-07-23T12:01:09;13.00;;;5.72;;
32746;SDS011;19118;50.860;13.662;2022-07-23T12:06:10;10.10;;;5.23;;
32746;SDS011;19118;50.860;13.662;2022-07-23T12:11:12;12.10;;;6.22;;
32746;SDS011;19118;50.860;13.662;2022-07-23T12:16:12;9.07;;;5.32;;
32746;SDS011;19118;50.860;13.662;2022-07-23T12:21:12;8.57;;;5.30;;
32746;SDS011;19118;50.860;13.662;2022-07-23T12:26:13;7.75;;;4.45;;
32746;SDS011;19118;50.860;13.662;2022-07-23T12:31:13;13.87;;;5.03;;
32746;SDS011;19118;50.860;13.662;2022-07-23T12:36:14;18.95;;;5.50;;
32746;SDS011;19118;50.860;13.662;2022-07-23T12:41:14;7.53;;;5.32;;
32746;SDS011;19118;50.860;13.662;2022-07-23T12:46:18;14.10;;;5.60;;
32746;SDS011;19118;50.860;13.662;2022-07-23T12:51:21;11.25;;;5.22;;
32746;SDS011;19118;50.860;13.662;2022-07-23T12:56:36;15.25;;;5.53;;
32746;SDS011;19118;50.860;13.662;2022-07-23T13:01:38;7.75;;;5.55;;
32746;SDS011;19118;50.860;13.662;2022-07-23T13:06:44;10.68;;;5.80;;
32746;SDS011;19118;50.860;13.662;2022-07-23T13:11:46;8.80;;;5.85;;
32746;SDS011;19118;50.860;13.662;2022-07-23T13:16:49;10.32;;;5.72;;
32746;SDS011;19118;50.860;13.662;2022-07-23T13:21:51;14.68;;;6.25;;
32746;SDS011;19118;50.860;13.662;2022-07-23T13:26:51;12.43;;;6.57;;
32746;SDS011;19118;50.860;13.662;2022-07-23T13:31:52;13.65;;;6.43;;
32746;SDS011;19118;50.860;13.662;2022-07-23T13:36:52;11.43;;;5.83;;
32746;SDS011;19118;50.860;13.662;2022-07-23T13:41:52;12.50;;;6.53;;
32746;SDS011;19118;50.860;13.662;2022-07-23T13:46:53;11.87;;;5.67;;
32746;SDS011;19118;50.860;13.662;2022-07-23T13:51:53;14.68;;;6.60;;
32746;SDS011;19118;50.860;13.662;2022-07-23T13:56:53;11.90;;;6.68;;
32746;SDS011;19118;50.860;13.662;2022-07-23T14:01:54;12.73;;;7.13;;
32746;SDS011;19118;50.860;13.662;2022-07-23T14:06:55;17.75;;;7.38;;
32746;SDS011;19118;50.860;13.662;2022-07-23T14:11:55;10.70;;;6.50;;
32746;SDS011;19118;50.860;13.662;2022-07-23T14:16:55;13.60;;;7.93;;
32746;SDS011;19118;50.860;13.662;2022-07-23T14:21:56;14.85;;;7.25;;
32746;SDS011;19118;50.860;13.662;2022-07-23T14:26:56;11.17;;;7.43;;
32746;SDS011;19118;50.860;13.662;2022-07-23T14:31:57;11.15;;;7.00;;
32746;SDS011;19118;50.860;13.662;2022-07-23T14:36:59;19.92;;;7.30;;
32746;SDS011;19118;50.860;13.662;2022-07-23T14:41:59;12.10;;;7.07;;
32746;SDS011;19118;50.860;13.662;2022-07-23T14:47:00;11.70;;;6.80;;
32746;SDS011;19118;50.860;13.662;2022-07-23T14:52:01;13.88;;;6.97;;
32746;SDS011;19118;50.860;13.662;2022-07-23T14:57:02;11.95;;;7.43;;
32746;SDS011;19118;50.860;13.662;2022-07-23T15:02:03;9.10;;;6.65;;
32746;SDS011;19118;50.860;13.662;2022-07-23T15:07:04;9.20;;;7.07;;
32746;SDS011;19118;50.860;13.662;2022-07-23T15:12:04;12.50;;;7.22;;
32746;SDS011;19118;50.860;13.662;2022-07-23T15:17:05;11.20;;;6.30;;
32746;SDS011;19118;50.860;13.662;2022-07-23T15:22:05;9.80;;;5.83;;
32746;SDS011;19118;50.860;13.662;2022-07-23T15:27:06;9.25;;;5.57;;
32746;SDS011;19118;50.860;13.662;2022-07-23T15:32:07;10.82;;;6.57;;
32746;SDS011;19118;50.860;13.662;2022-07-23T15:37:07;21.97;;;6.97;;
32746;SDS011;19118;50.860;13.662;2022-07-23T15:42:07;10.30;;;7.80;;
32746;SDS011;19118;50.860;13.662;2022-07-23T15:47:12;10.23;;;7.25;;
32746;SDS011;19118;50.860;13.662;2022-07-23T15:52:14;11.52;;;8.60;;
32746;SDS011;19118;50.860;13.662;2022-07-23T15:57:14;11.43;;;8.02;;
32746;SDS011;19118;50.860;13.662;2022-07-23T16:02:14;15.13;;;8.13;;
32746;SDS011;19118;50.860;13.662;2022-07-23T16:07:17;14.70;;;8.85;;
32746;SDS011;19118;50.860;13.662;2022-07-23T16:12:18;16.35;;;9.90;;
32746;SDS011;19118;50.860;13.662;2022-07-23T16:17:18;14.67;;;7.80;;
32746;SDS011;19118;50.860;13.662;2022-07-23T16:22:18;11.43;;;8.23;;
32746;SDS011;19118;50.860;13.662;2022-07-23T16:27:19;12.10;;;8.47;;
32746;SDS011;19118;50.860;13.662;2022-07-23T16:32:19;14.57;;;9.68;;
32746;SDS011;19118;50.860;13.662;2022-07-23T16:37:20;14.27;;;10.33;;
32746;SDS011;19118;50.860;13.662;2022-07-23T16:42:20;16.77;;;12.10;;
32746;SDS011;19118;50.860;13.662;2022-07-23T16:47:20;13.70;;;10.10;;
32746;SDS011;19118;50.860;13.662;2022-07-23T16:52:21;15.52;;;11.88;;
32746;SDS011;19118;50.860;13.662;2022-07-23T16:57:22;14.48;;;11.27;;
32746;SDS011;19118;50.860;13.662;2022-07-23T17:02:22;17.20;;;13.18;;
32746;SDS011;19118;50.860;13.662;2022-07-23T17:07:23;17.60;;;13.73;;
32746;SDS011;19118;50.860;13.662;2022-07-23T17:12:23;18.98;;;11.68;;
32746;SDS011;19118;50.860;13.662;2022-07-23T17:17:24;17.92;;;12.60;;
32746;SDS011;19118;50.860;13.662;2022-07-23T17:22:24;20.35;;;12.35;;
32746;SDS011;19118;50.860;13.662;2022-07-23T17:27:24;19.50;;;12.33;;
32746;SDS011;19118;50.860;13.662;2022-07-23T17:32:25;20.20;;;13.40;;
32746;SDS011;19118;50.860;13.662;2022-07-23T17:37:25;16.43;;;13.57;;
32746;SDS011;19118;50.860;13.662;2022-07-23T17:42:26;18.30;;;12.97;;
32746;SDS011;19118;50.860;13.662;2022-07-23T17:47:26;19.02;;;14.15;;
32746;SDS011;19118;50.860;13.662;2022-07-23T17:52:27;20.90;;;13.83;;
32746;SDS011;19118;50.860;13.662;2022-07-23T17:57:27;16.85;;;12.25;;
32746;SDS011;19118;50.860;13.662;2022-07-23T18:02:27;14.67;;;11.10;;
32746;SDS011;19118;50.860;13.662;2022-07-23T18:07:28;13.87;;;10.73;;
32746;SDS011;19118;50.860;13.662;2022-07-23T18:12:28;13.35;;;10.20;;
32746;SDS011;19118;50.860;13.662;2022-07-23T18:17:28;22.13;;;10.82;;
32746;SDS011;19118;50.860;13.662;2022-07-23T18:22:29;13.02;;;9.63;;
32746;SDS011;19118;50.860;13.662;2022-07-23T18:27:29;12.87;;;9.60;;
32746;SDS011;19118;50.860;13.662;2022-07-23T18:32:31;19.33;;;10.05;;
32746;SDS011;19118;50.860;13.662;2022-07-23T18:37:31;15.10;;;9.73;;
32746;SDS011;19118;50.860;13.662;2022-07-23T18:42:32;14.57;;;9.52;;
32746;SDS011;19118;50.860;13.662;2022-07-23T18:47:32;13.63;;;9.20;;
32746;SDS011;19118;50.860;13.662;2022-07-23T18:52:33;12.98;;;8.00;;
32746;SDS011;19118;50.860;13.662;2022-07-23T18:57:34;15.88;;;10.63;;
32746;SDS011;19118;50.860;13.662;2022-07-23T19:02:34;15.00;;;9.15;;
32746;SDS011;19118;50.860;13.662;2022-07-23T19:07:35;13.52;;;9.30;;
32746;SDS011;19118;50.860;13.662;2022-07-23T19:12:37;12.25;;;8.70;;
32746;SDS011;19118;50.860;13.662;2022-07-23T19:17:37;17.55;;;10.02;;
32746;SDS011;19118;50.860;13.662;2022-07-23T19:22:38;64.00;;;10.27;;
32746;SDS011;19118;50.860;13.662;2022-07-23T19:27:38;22.77;;;9.73;;
32746;SDS011;19118;50.860;13.662;2022-07-23T19:32:39;31.63;;;10.63;;
32746;SDS011;19118;50.860;13.662;2022-07-23T19:37:39;24.85;;;11.10;;
32746;SDS011;19118;50.860;13.662;2022-07-23T19:42:40;36.03;;;12.13;;
32746;SDS011;19118;50.860;13.662;2022-07-23T19:47:40;44.03;;;10.90;;
32746;SDS011;19118;50.860;13.662;2022-07-23T19:52:44;27.38;;;11.82;;
32746;SDS011;19118;50.860;13.662;2022-07-23T19:57:44;31.30;;;13.63;;
32746;SDS011;19118;50.860;13.662;2022-07-23T20:02:45;34.70;;;14.73;;
32746;SDS011;19118;50.860;13.662;2022-07-23T20:07:45;35.80;;;13.15;;
32746;SDS011;19118;50.860;13.662;2022-07-23T20:12:45;30.10;;;13.07;;
32746;SDS011;19118;50.860;13.662;2022-07-23T20:17:46;26.73;;;13.65;;
32746;SDS011;19118;50.860;13.662;2022-07-23T20:22:46;25.50;;;13.95;;
32746;SDS011;19118;50.860;13.662;2022-07-23T20:27:47;23.43;;;15.43;;
32746;SDS011;19118;50.860;13.662;2022-07-23T20:32:47;27.70;;;16.45;;
32746;SDS011;19118;50.860;13.662;2022-07-23T20:37:47;24.17;;;15.57;;
32746;SDS011;19118;50.860;13.662;2022-07-23T20:42:48;24.33;;;14.53;;
32746;SDS011;19118;50.860;13.662;2022-07-23T20:47:49;26.55;;;16.13;;
32746;SDS011;19118;50.860;13.662;2022-07-23T20:52:49;25.92;;;15.75;;
32746;SDS011;19118;50.860;13.662;2022-07-23T20:57:50;22.67;;;14.82;;
32746;SDS011;19118;50.860;13.662;2022-07-23T21:02:50;23.17;;;15.90;;
32746;SDS011;19118;50.860;13.662;2022-07-23T21:07:50;24.00;;;15.17;;
32746;SDS011;19118;50.860;13.662;2022-07-23T21:12:51;24.23;;;16.03;;
32746;SDS011;19118;50.860;13.662;2022-07-23T21:17:51;25.95;;;15.60;;
32746;SDS011;19118;50.860;13.662;2022-07-23T21:22:52;23.73;;;15.48;;
32746;SDS011;19118;50.860;13.662;2022-07-23T21:27:52;25.77;;;16.27;;
32746;SDS011;19118;50.860;13.662;2022-07-23T21:32:52;51.07;;;16.90;;
32746;SDS011;19118;50.860;13.662;2022-07-23T21:37:53;32.37;;;16.30;;
32746;SDS011;19118;50.860;13.662;2022-07-23T21:42:53;23.37;;;16.47;;
32746;SDS011;19118;50.860;13.662;2022-07-23T21:47:53;23.08;;;16.02;;
32746;SDS011;19118;50.860;13.662;2022-07-23T21:52:54;22.50;;;16.00;;
32746;SDS011;19118;50.860;13.662;2022-07-23T21:57:54;25.17;;;16.05;;
32746;SDS011;19118;50.860;13.662;2022-07-23T22:02:54;21.93;;;15.10;;
32746;SDS011;19118;50.860;13.662;2022-07-23T22:07:55;21.50;;;16.30;;
32746;SDS011;19118;50.860;13.662;2022-07-23T22:12:55;23.13;;;15.27;;
32746;SDS011;19118;50.860;13.662;2022-07-23T22:17:56;25.80;;;15.80;;
32746;SDS011;19118;50.860;13.662;2022-07-23T22:22:56;29.70;;;16.40;;
32746;SDS011;19118;50.860;13.662;2022-07-23T22:27:57;26.55;;;17.02;;
32746;SDS011;19118;50.860;13.662;2022-07-23T22:32:57;25.13;;;16.27;;
32746;SDS011;19118;50.860;13.662;2022-07-23T22:37:57;26.25;;;16.83;;
32746;SDS011;19118;50.860;13.662;2022-07-23T22:42:58;22.70;;;15.80;;
32746;SDS011;19118;50.860;13.662;2022-07-23T22:47:58;26.50;;;17.20;;
32746;SDS011;19118;50.860;13.662;2022-07-23T22:52:59;26.00;;;15.77;;
32746;SDS011;19118;50.860;13.662;2022-07-23T22:57:59;25.07;;;17.07;;
32746;SDS011;19118;50.860;13.662;2022-07-23T23:03:00;23.73;;;16.33;;
32746;SDS011;19118;50.860;13.662;2022-07-23T23:08:00;22.52;;;16.30;;
32746;SDS011;19118;50.860;13.662;2022-07-23T23:13:00;23.13;;;15.65;;
32746;SDS011;19118;50.860;13.662;2022-07-23T23:18:01;25.63;;;18.10;;
32746;SDS011;19118;50.860;13.662;2022-07-23T23:23:01;24.03;;;15.70;;
32746;SDS011;19118;50.860;13.662;2022-07-23T23:28:01;25.77;;;16.53;;
32746;SDS011;19118;50.860;13.662;2022-07-23T23:33:02;27.98;;;16.45;;
32746;SDS011;19118;50.860;13.662;2022-07-23T23:38:02;25.65;;;15.10;;
32746;SDS011;19118;50.860;13.662;2022-07-23T23:43:03;26.33;;;15.77;;
32746;SDS011;19118;50.860;13.662;2022-07-23T23:48:03;23.80;;;15.32;;
32746;SDS011;19118;50.860;13.662;2022-07-23T23:53:04;23.73;;;15.15;;
32746;SDS011;19118;50.860;13.662;2022-07-23T23:58:04;25.35;;;15.32;;
